createdAt,value
2019-05-07T00:00:53.733Z,65.92
2019-05-07T00:03:23.149Z,65.60
2019-05-07T00:05:53.902Z,65.99
2019-05-07T00:08:23.551Z,66.87
2019-05-07T00:10:53.059Z,67.44
2019-05-07T00:13:22.795Z,67.62
2019-05-07T00:15:52.898Z,67.73
2019-05-07T00:18:22.934Z,67.91
2019-05-07T00:20:53.030Z,68.05
2019-05-07T00:23:23.166Z,68.48
2019-05-07T00:25:53.004Z,68.21
2019-05-07T00:28:23.140Z,67.94
2019-05-07T00:30:52.609Z,68.12
2019-05-07T00:33:22.863Z,68.16
2019-05-07T00:35:56.907Z,68.45
2019-05-07T00:38:27.959Z,68.33
2019-05-07T00:41:35.832Z,68.23
2019-05-07T00:44:06.783Z,68.40
2019-05-07T00:46:36.313Z,68.54
2019-05-07T00:49:05.732Z,68.80
2019-05-07T00:51:35.284Z,68.68
2019-05-07T00:54:05.729Z,68.52
2019-05-07T00:56:35.128Z,68.58
2019-05-07T00:59:04.644Z,68.72
2019-05-07T01:01:34.810Z,69.09
2019-05-07T01:04:04.456Z,69.28
2019-05-07T01:06:33.846Z,69.69
2019-05-07T01:09:03.786Z,69.78
2019-05-07T01:11:33.604Z,69.69
2019-05-07T01:14:03.212Z,69.76
2019-05-07T01:16:33.129Z,70.30
2019-05-07T01:19:02.587Z,70.14
2019-05-07T01:21:32.630Z,70.58
2019-05-07T01:24:03.319Z,71.06
2019-05-07T01:26:34.512Z,71.02
2019-05-07T01:29:03.990Z,70.40
2019-05-07T01:31:38.358Z,70.12
2019-05-07T01:34:09.420Z,70.54
2019-05-07T01:36:38.824Z,70.80
2019-05-07T01:39:08.560Z,71.04
2019-05-07T01:41:38.094Z,71.31
2019-05-07T01:44:07.474Z,71.57
2019-05-07T01:46:36.909Z,72.09
2019-05-07T01:49:06.303Z,72.56
2019-05-07T01:51:35.719Z,72.79
2019-05-07T01:54:05.176Z,72.99
2019-05-07T01:56:34.711Z,73.00
2019-05-07T01:59:04.270Z,73.09
2019-05-07T02:01:35.915Z,73.20
2019-05-07T02:04:06.536Z,73.30
2019-05-07T02:06:37.583Z,73.25
2019-05-07T02:09:24.639Z,73.29
2019-05-07T02:12:02.433Z,73.30
2019-05-07T02:14:33.053Z,73.21
2019-05-07T02:17:03.103Z,73.35
2019-05-07T02:19:35.235Z,73.60
2019-05-07T02:22:04.782Z,73.62
2019-05-07T02:24:36.441Z,73.76
2019-05-07T02:27:07.435Z,73.67
2019-05-07T02:29:38.235Z,73.73
2019-05-07T02:32:07.732Z,73.78
2019-05-07T02:34:37.125Z,73.89
2019-05-07T02:37:08.266Z,73.80
2019-05-07T02:39:44.163Z,73.73
2019-05-07T02:42:12.991Z,73.67
2019-05-07T02:45:04.152Z,73.71
2019-05-07T02:47:33.686Z,73.90
2019-05-07T02:50:13.070Z,73.97
2019-05-07T02:52:53.588Z,74.21
2019-05-07T02:55:39.750Z,74.24
2019-05-07T02:58:09.141Z,74.44
2019-05-07T03:00:38.723Z,74.29
2019-05-07T03:03:08.123Z,74.18
2019-05-07T03:05:37.741Z,74.12
2019-05-07T03:08:07.370Z,74.23
2019-05-07T03:10:36.784Z,74.24
2019-05-07T03:13:06.419Z,74.56
2019-05-07T03:15:36.026Z,74.92
2019-05-07T03:18:05.648Z,74.77
2019-05-07T03:20:53.245Z,74.56
2019-05-07T03:23:23.168Z,74.43
2019-05-07T03:25:57.042Z,74.76
2019-05-07T03:28:26.497Z,74.83
2019-05-07T03:31:05.892Z,74.42
2019-05-07T03:33:36.916Z,74.27
2019-05-07T03:36:08.306Z,74.64
2019-05-07T03:38:37.659Z,74.41
2019-05-07T03:41:07.113Z,74.43
2019-05-07T03:43:36.616Z,74.52
2019-05-07T03:46:07.652Z,74.26
2019-05-07T03:48:38.933Z,74.16
2019-05-07T03:51:08.341Z,74.69
2019-05-07T03:53:37.732Z,74.83
2019-05-07T03:56:07.122Z,74.51
2019-05-07T03:58:36.539Z,74.39
2019-05-07T04:01:06.030Z,74.59
2019-05-07T04:03:35.433Z,74.51
2019-05-07T04:06:05.044Z,74.12
2019-05-07T04:08:34.456Z,74.08
2019-05-07T04:11:04.246Z,74.02
2019-05-07T04:13:34.055Z,74.15
2019-05-07T04:16:04.421Z,74.50
2019-05-07T04:18:34.210Z,74.63
2019-05-07T04:21:04.250Z,74.89
2019-05-07T04:23:34.550Z,74.94
2019-05-07T04:26:05.662Z,74.89
2019-05-07T04:28:39.237Z,74.64
2019-05-07T04:31:08.644Z,74.78
2019-05-07T04:33:39.687Z,74.39
2019-05-07T04:36:22.773Z,74.65
2019-05-07T04:38:53.222Z,74.58
2019-05-07T04:41:23.467Z,74.71
2019-05-07T04:43:54.066Z,74.41
2019-05-07T04:46:24.009Z,74.09
2019-05-07T04:48:53.443Z,74.19
2019-05-07T04:51:24.489Z,74.01
2019-05-07T04:53:54.362Z,74.00
2019-05-07T04:56:24.139Z,74.03
2019-05-07T04:58:53.561Z,74.28
2019-05-07T05:01:24.622Z,74.02
2019-05-07T05:03:54.289Z,73.79
2019-05-07T05:06:24.347Z,74.00
2019-05-07T05:08:56.317Z,73.83
2019-05-07T05:11:25.114Z,73.94
2019-05-07T05:13:54.515Z,74.20
2019-05-07T05:16:27.239Z,73.39
2019-05-07T05:18:57.238Z,73.52
2019-05-07T05:21:28.302Z,73.45
2019-05-07T05:24:05.046Z,73.14
2019-05-07T05:26:34.454Z,72.74
2019-05-07T05:29:04.714Z,72.27
2019-05-07T05:31:34.124Z,72.39
2019-05-07T05:34:03.532Z,72.23
2019-05-07T05:36:33.191Z,71.50
2019-05-07T05:39:02.755Z,71.90
2019-05-07T05:41:34.052Z,71.39
2019-05-07T05:44:09.333Z,71.97
2019-05-07T05:46:38.753Z,71.60
2019-05-07T05:49:08.172Z,71.51
2019-05-07T05:51:43.020Z,70.78
2019-05-07T05:54:26.014Z,70.29
2019-05-07T05:57:02.698Z,69.92
2019-05-07T05:59:47.974Z,70.27
2019-05-07T06:02:24.804Z,70.19
2019-05-07T06:05:12.624Z,69.38
2019-05-07T06:07:43.717Z,69.00
2019-05-07T06:10:15.000Z,69.12
2019-05-07T06:12:46.026Z,68.99
2019-05-07T06:15:22.167Z,69.02
2019-05-07T06:17:55.341Z,67.65
2019-05-07T06:20:35.247Z,67.40
2019-05-07T06:23:18.264Z,66.55
2019-05-07T06:25:48.720Z,65.70
2019-05-07T06:28:18.121Z,65.25
2019-05-07T06:30:48.524Z,65.42
2019-05-07T06:33:17.979Z,64.14
2019-05-07T06:35:47.394Z,64.08
2019-05-07T06:38:16.803Z,63.61
2019-05-07T06:41:04.277Z,63.28
2019-05-07T06:43:38.196Z,62.36
2019-05-07T06:46:08.002Z,61.87
2019-05-07T06:48:42.201Z,61.57
2019-05-07T06:51:08.579Z,60.47
2019-05-07T06:53:38.003Z,61.40
2019-05-07T06:56:08.968Z,61.15
2019-05-07T06:58:43.016Z,60.12
2019-05-07T07:01:29.374Z,60.53
2019-05-07T07:04:09.375Z,59.82
2019-05-07T07:06:43.488Z,59.22
2019-05-07T07:09:17.243Z,59.16
2019-05-07T07:11:52.933Z,59.36
2019-05-07T07:14:22.795Z,58.31
2019-05-07T07:16:52.746Z,56.72
2019-05-07T07:19:23.321Z,55.77
2019-05-07T07:21:52.964Z,53.73
2019-05-07T07:24:22.417Z,52.08
2019-05-07T07:26:52.844Z,51.16
2019-05-07T07:29:23.943Z,49.52
2019-05-07T07:31:55.082Z,48.17
2019-05-07T07:34:25.555Z,47.39
2019-05-07T07:37:05.993Z,47.60
2019-05-07T07:39:32.333Z,46.34
2019-05-07T07:42:06.041Z,47.12
2019-05-07T07:44:35.439Z,49.03
2019-05-07T07:47:05.038Z,49.15
2019-05-07T07:49:34.600Z,48.51
2019-05-07T07:52:04.100Z,48.11
2019-05-07T07:54:33.509Z,48.98
2019-05-07T07:57:04.593Z,48.90
2019-05-07T07:59:42.128Z,48.22
2019-05-07T08:02:13.545Z,48.32
2019-05-07T08:04:42.945Z,46.31
2019-05-07T08:07:12.594Z,45.98
2019-05-07T08:09:42.894Z,46.79
2019-05-07T08:12:12.826Z,47.26
2019-05-07T08:14:42.929Z,47.85
2019-05-07T08:17:13.113Z,45.73
2019-05-07T08:19:43.179Z,45.99
2019-05-07T08:22:12.622Z,45.20
2019-05-07T08:24:42.724Z,43.43
2019-05-07T08:27:15.115Z,40.56
2019-05-07T08:29:43.707Z,41.80
2019-05-07T08:32:14.774Z,42.08
2019-05-07T08:34:48.238Z,41.82
2019-05-07T08:37:17.665Z,40.93
2019-05-07T08:39:47.067Z,39.94
2019-05-07T08:42:16.487Z,40.21
2019-05-07T08:45:03.053Z,38.17
2019-05-07T08:47:36.769Z,36.22
2019-05-07T08:50:07.151Z,35.35
2019-05-07T08:52:36.623Z,30.52
2019-05-07T08:55:07.887Z,29.11
2019-05-07T08:57:37.520Z,27.87
2019-05-07T09:00:07.585Z,29.54
2019-05-07T09:02:36.955Z,29.04
2019-05-07T09:05:09.236Z,29.06
2019-05-07T09:07:38.499Z,26.50
2019-05-07T09:10:08.252Z,25.66
2019-05-07T09:12:37.899Z,22.36
2019-05-07T09:15:08.360Z,22.13
2019-05-07T09:17:37.839Z,21.03
2019-05-07T09:20:09.248Z,20.53
2019-05-07T09:22:38.680Z,20.32
2019-05-07T09:25:08.636Z,23.50
2019-05-07T09:27:45.456Z,25.44
2019-05-07T09:30:34.000Z,26.98
2019-05-07T09:33:05.130Z,29.55
2019-05-07T09:35:39.819Z,32.44
2019-05-07T09:38:09.442Z,33.43
2019-05-07T09:40:38.832Z,34.42
2019-05-07T09:43:08.338Z,33.65
2019-05-07T09:45:37.740Z,31.59
2019-05-07T09:48:07.401Z,29.87
2019-05-07T09:50:36.789Z,29.53
2019-05-07T09:53:06.448Z,31.64
2019-05-07T09:55:35.848Z,30.19
2019-05-07T09:58:05.385Z,28.38
2019-05-07T10:00:35.242Z,25.39
2019-05-07T10:03:05.073Z,23.81
2019-05-07T10:05:34.566Z,20.89
2019-05-07T10:08:04.404Z,21.27
2019-05-07T10:10:33.889Z,24.32
2019-05-07T10:13:08.316Z,25.93
2019-05-07T10:15:37.941Z,27.35
2019-05-07T10:18:15.012Z,27.10
2019-05-07T10:20:44.549Z,27.46
2019-05-07T10:23:18.668Z,28.83
2019-05-07T10:25:49.026Z,29.76
2019-05-07T10:28:19.361Z,29.79
2019-05-07T10:30:48.771Z,29.06
2019-05-07T10:33:18.465Z,29.20
2019-05-07T10:35:47.895Z,28.79
2019-05-07T10:38:17.659Z,28.24
2019-05-07T10:40:47.209Z,26.25
2019-05-07T10:43:16.608Z,22.89
2019-05-07T10:45:52.056Z,21.37
2019-05-07T10:48:39.415Z,17.11
2019-05-07T10:51:08.990Z,16.59
2019-05-07T10:53:38.389Z,14.94
2019-05-07T10:56:07.810Z,15.04
2019-05-07T10:58:37.205Z,16.90
2019-05-07T11:01:06.957Z,18.23
2019-05-07T11:03:37.121Z,20.03
2019-05-07T11:06:06.546Z,19.35
2019-05-07T11:08:35.937Z,16.89
2019-05-07T11:11:05.355Z,14.66
2019-05-07T11:13:34.822Z,15.44
2019-05-07T11:16:12.612Z,14.19
2019-05-07T11:18:43.721Z,13.79
2019-05-07T11:21:13.264Z,16.81
2019-05-07T11:23:42.662Z,17.03
2019-05-07T11:26:12.080Z,18.83
2019-05-07T11:28:41.471Z,20.61
2019-05-07T11:31:12.393Z,17.41
2019-05-07T11:33:41.966Z,16.29
2019-05-07T11:36:11.391Z,16.06
2019-05-07T11:38:41.832Z,17.37
2019-05-07T11:41:12.781Z,17.92
2019-05-07T11:43:46.519Z,19.19
2019-05-07T11:46:22.195Z,19.54
2019-05-07T11:48:53.348Z,19.02
2019-05-07T11:51:24.423Z,20.68
2019-05-07T11:54:12.343Z,21.02
2019-05-07T11:56:42.243Z,21.85
2019-05-07T11:59:13.398Z,20.98
2019-05-07T12:01:48.285Z,19.70
2019-05-07T12:04:17.764Z,18.87
2019-05-07T12:06:47.295Z,17.45
2019-05-07T12:09:17.091Z,16.35
2019-05-07T12:11:46.566Z,16.26
2019-05-07T12:14:28.116Z,16.74
2019-05-07T12:16:47.127Z,18.49
2019-05-07T12:19:16.819Z,19.58
2019-05-07T12:21:46.650Z,20.42
2019-05-07T12:24:16.676Z,22.19
2019-05-07T12:26:46.219Z,22.58
2019-05-07T12:29:15.637Z,23.30
2019-05-07T12:31:46.668Z,23.49
2019-05-07T12:34:17.740Z,24.89
2019-05-07T12:36:47.253Z,23.92
2019-05-07T12:39:16.659Z,24.99
2019-05-07T12:41:46.064Z,25.20
2019-05-07T12:44:15.544Z,24.87
2019-05-07T12:46:44.946Z,24.80
2019-05-07T12:49:14.352Z,24.93
2019-05-07T12:51:54.595Z,24.72
2019-05-07T12:54:25.722Z,24.68
2019-05-07T12:56:55.124Z,25.31
2019-05-07T12:59:24.610Z,22.64
2019-05-07T13:02:17.826Z,22.72
2019-05-07T13:04:36.564Z,21.63
2019-05-07T13:07:07.684Z,21.00
2019-05-07T13:09:37.089Z,22.13
2019-05-07T13:12:06.497Z,21.50
2019-05-07T13:14:35.910Z,22.72
2019-05-07T13:17:05.367Z,21.86
2019-05-07T13:19:34.797Z,21.73
2019-05-07T13:22:04.343Z,22.42
2019-05-07T13:24:33.759Z,22.60
2019-05-07T13:27:03.390Z,21.56
2019-05-07T13:29:32.832Z,23.06
2019-05-07T13:32:03.841Z,22.52
2019-05-07T13:34:34.291Z,21.02
2019-05-07T13:37:17.295Z,20.51
2019-05-07T13:39:51.993Z,23.41
2019-05-07T13:42:38.646Z,24.29
2019-05-07T13:47:54.273Z,27.61
2019-05-07T13:50:23.812Z,26.97
2019-05-07T13:52:53.265Z,27.10
2019-05-07T13:55:22.696Z,26.27
2019-05-07T13:57:52.502Z,26.34
2019-05-07T14:00:23.883Z,25.69
2019-05-07T14:02:54.856Z,26.28
2019-05-07T14:05:24.461Z,22.89
2019-05-07T14:07:53.997Z,23.41
2019-05-07T14:10:23.496Z,20.77
2019-05-07T14:12:52.892Z,22.11
2019-05-07T14:15:23.152Z,22.87
2019-05-07T14:17:54.957Z,22.18
2019-05-07T14:20:23.960Z,21.35
2019-05-07T14:22:53.370Z,20.62
2019-05-07T14:25:24.236Z,21.88
2019-05-07T14:27:53.659Z,21.43
2019-05-07T14:30:24.544Z,21.90
2019-05-07T14:32:58.530Z,22.58
2019-05-07T14:35:38.360Z,23.16
2019-05-07T14:38:09.401Z,23.43
2019-05-07T14:40:38.821Z,23.39
2019-05-07T14:43:09.854Z,23.40
2019-05-07T14:45:41.959Z,24.67
2019-05-07T14:48:12.180Z,25.11
2019-05-07T14:50:44.831Z,24.85
2019-05-07T14:53:13.157Z,24.85
2019-05-07T14:55:42.673Z,25.02
2019-05-07T14:58:12.525Z,25.18
2019-05-07T15:00:42.865Z,24.54
2019-05-07T15:03:12.665Z,25.87
2019-05-07T15:05:42.441Z,25.48
2019-05-07T15:08:14.421Z,25.45
2019-05-07T15:10:43.123Z,25.00
2019-05-07T15:13:12.870Z,25.16
2019-05-07T15:15:42.389Z,25.64
2019-05-07T15:18:16.476Z,25.07
2019-05-07T15:20:45.977Z,25.67
2019-05-07T15:23:29.279Z,25.82
2019-05-07T15:26:01.867Z,25.75
2019-05-07T15:28:32.351Z,27.32
2019-05-07T15:31:09.298Z,27.24
2019-05-07T15:33:38.690Z,26.04
2019-05-07T15:36:08.132Z,25.51
2019-05-07T15:38:37.590Z,26.20
2019-05-07T15:41:07.231Z,26.25
2019-05-07T15:43:36.703Z,25.87
2019-05-07T15:46:06.193Z,26.06
2019-05-07T15:48:35.739Z,26.08
2019-05-07T15:51:05.165Z,24.77
2019-05-07T15:53:52.365Z,26.15
2019-05-07T15:56:22.028Z,26.73
2019-05-07T15:58:51.824Z,27.19
2019-05-07T16:01:22.158Z,27.13
2019-05-07T16:03:54.970Z,27.20
2019-05-07T16:06:22.927Z,27.47
2019-05-07T16:08:53.966Z,25.99
2019-05-07T16:11:23.590Z,26.85
2019-05-07T16:14:06.197Z,27.37
2019-05-07T16:16:37.259Z,26.97
2019-05-07T16:19:14.107Z,27.57
2019-05-07T16:21:43.532Z,28.02
2019-05-07T16:24:13.000Z,28.97
2019-05-07T16:26:42.901Z,29.29
2019-05-07T16:29:13.266Z,29.25
2019-05-07T16:31:44.229Z,28.17
2019-05-07T16:34:13.934Z,28.36
2019-05-07T16:36:43.340Z,29.21
2019-05-07T16:39:12.738Z,29.01
2019-05-07T16:41:42.449Z,29.60
2019-05-07T16:44:12.340Z,28.64
2019-05-07T16:46:42.271Z,29.04
2019-05-07T16:49:12.326Z,29.72
2019-05-07T16:51:44.568Z,29.08
2019-05-07T16:54:12.967Z,28.80
2019-05-07T16:57:03.130Z,28.45
2019-05-07T16:59:32.704Z,29.72
2019-05-07T17:02:03.779Z,29.23
2019-05-07T17:04:33.185Z,30.04
2019-05-07T17:07:04.264Z,30.78
2019-05-07T17:09:35.256Z,30.57
2019-05-07T17:12:06.616Z,31.09
2019-05-07T17:14:36.093Z,30.87
2019-05-07T17:17:05.507Z,30.55
2019-05-07T17:19:34.910Z,30.67
2019-05-07T17:22:06.409Z,31.07
2019-05-07T17:24:35.498Z,30.75
2019-05-07T17:27:04.900Z,31.74
2019-05-07T17:29:34.373Z,31.84
2019-05-07T17:32:03.769Z,31.70
2019-05-07T17:34:33.182Z,31.64
2019-05-07T17:37:02.588Z,31.77
2019-05-07T17:39:32.316Z,33.55
2019-05-07T17:42:02.528Z,33.99
2019-05-07T17:44:32.511Z,32.92
2019-05-07T17:47:02.179Z,32.28
2019-05-07T17:49:32.365Z,31.93
2019-05-07T17:52:02.951Z,32.60
2019-05-07T17:54:32.688Z,33.10
2019-05-07T17:57:02.194Z,34.88
2019-05-07T17:59:32.137Z,35.32
2019-05-07T18:02:09.287Z,36.81
2019-05-07T18:04:50.569Z,37.42
2019-05-07T18:07:11.939Z,36.74
2019-05-07T18:09:42.458Z,34.97
2019-05-07T18:12:12.193Z,35.17
2019-05-07T18:14:42.399Z,36.34
2019-05-07T18:17:13.553Z,36.92
2019-05-07T18:19:43.033Z,36.10
2019-05-07T18:22:12.847Z,36.21
2019-05-07T18:24:42.242Z,36.90
2019-05-07T18:27:13.273Z,37.24
2019-05-07T18:29:42.830Z,37.19
2019-05-07T18:32:12.522Z,38.11
2019-05-07T18:34:42.757Z,38.30
2019-05-07T18:37:12.596Z,38.61
2019-05-07T18:39:42.819Z,38.06
2019-05-07T18:42:12.736Z,38.71
2019-05-07T18:44:42.437Z,38.31
2019-05-07T18:47:12.934Z,40.66
2019-05-07T18:49:44.762Z,41.81
2019-05-07T18:52:13.558Z,40.93
2019-05-07T18:54:43.016Z,40.39
2019-05-07T18:57:12.380Z,40.30
2019-05-07T18:59:42.308Z,40.44
2019-05-07T19:02:11.809Z,40.71
2019-05-07T19:04:42.229Z,41.28
2019-05-07T19:07:13.182Z,41.41
2019-05-07T19:09:42.817Z,41.10
2019-05-07T19:12:14.094Z,41.40
2019-05-07T19:14:43.557Z,41.52
2019-05-07T19:17:12.959Z,42.12
2019-05-07T19:19:42.473Z,41.33
2019-05-07T19:22:11.863Z,41.24
2019-05-07T19:24:47.700Z,40.70
2019-05-07T19:27:12.679Z,40.80
2019-05-07T19:29:45.060Z,40.68
2019-05-07T19:32:14.367Z,41.90
2019-05-07T19:34:43.787Z,41.46
2019-05-07T19:37:13.222Z,41.71
2019-05-07T19:39:42.955Z,41.63
2019-05-07T19:42:12.501Z,41.42
2019-05-07T19:44:42.286Z,41.01
2019-05-07T19:47:12.677Z,41.25
2019-05-07T19:49:42.185Z,41.30
2019-05-07T19:52:12.474Z,41.81
2019-05-07T19:54:47.155Z,41.47
2019-05-07T19:57:15.743Z,41.37
2019-05-07T19:59:45.146Z,41.21
2019-05-07T20:02:16.196Z,41.84
2019-05-07T20:04:45.612Z,42.13
2019-05-07T20:07:15.046Z,42.61
2019-05-07T20:09:44.472Z,42.68
2019-05-07T20:12:13.893Z,43.98
2019-05-07T20:14:43.320Z,44.33
2019-05-07T20:17:12.818Z,44.58
2019-05-07T20:19:42.240Z,45.15
2019-05-07T20:22:12.784Z,45.07
2019-05-07T20:24:42.235Z,44.98
2019-05-07T20:27:12.463Z,45.16
2019-05-07T20:29:42.783Z,45.27
2019-05-07T20:32:12.435Z,45.74
2019-05-07T20:34:42.326Z,45.20
2019-05-07T20:37:12.886Z,45.22
2019-05-07T20:39:42.736Z,45.32
2019-05-07T20:42:12.477Z,46.29
2019-05-07T20:44:42.643Z,47.21
2019-05-07T20:47:12.767Z,47.66
2019-05-07T20:49:42.740Z,47.75
2019-05-07T20:52:12.348Z,47.87
2019-05-07T20:54:49.381Z,48.64
2019-05-07T20:57:23.132Z,48.45
2019-05-07T20:59:52.540Z,48.11
2019-05-07T21:02:22.842Z,48.09
2019-05-07T21:04:52.403Z,49.17
2019-05-07T21:07:22.291Z,46.79
2019-05-07T21:09:52.983Z,46.83
2019-05-07T21:12:22.774Z,46.13
2019-05-07T21:14:52.576Z,46.56
2019-05-07T21:17:22.720Z,46.66
2019-05-07T21:19:52.197Z,46.56
2019-05-07T21:22:22.605Z,47.39
2019-05-07T21:24:53.198Z,47.35
2019-05-07T21:27:22.919Z,46.67
2019-05-07T21:29:52.835Z,45.66
2019-05-07T21:32:23.095Z,45.60
2019-05-07T21:34:52.872Z,46.40
2019-05-07T21:37:22.887Z,46.11
2019-05-07T21:39:53.110Z,45.98
2019-05-07T21:42:22.982Z,46.58
2019-05-07T21:44:52.778Z,47.10
2019-05-07T21:47:22.392Z,48.14
2019-05-07T21:49:53.326Z,48.72
2019-05-07T21:52:24.549Z,49.27
2019-05-07T21:54:55.620Z,47.96
2019-05-07T21:57:41.983Z,48.17
2019-05-07T22:00:22.115Z,48.09
2019-05-07T22:02:52.618Z,47.78
2019-05-07T22:05:22.517Z,47.87
2019-05-07T22:07:54.219Z,49.39
2019-05-07T22:10:23.049Z,49.88
2019-05-07T22:12:54.658Z,49.58
2019-05-07T22:15:23.793Z,49.72
2019-05-07T22:21:16.867Z,49.53
2019-05-07T22:23:46.353Z,49.43
2019-05-07T22:26:22.272Z,49.47
2019-05-07T22:28:46.909Z,49.97
2019-05-07T22:31:34.131Z,49.17
2019-05-07T22:34:08.137Z,49.55
2019-05-07T22:36:37.711Z,49.69
2019-05-07T22:39:07.514Z,49.81
2019-05-07T22:41:36.925Z,50.35
2019-05-07T22:44:06.357Z,50.45
2019-05-07T22:46:35.766Z,49.59
2019-05-07T22:49:05.200Z,51.00
2019-05-07T22:51:34.589Z,50.50
2019-05-07T22:54:04.413Z,51.75
2019-05-07T22:56:52.486Z,51.60
2019-05-07T23:01:55.076Z,50.62
2019-05-07T23:04:23.197Z,50.77
2019-05-07T23:06:52.938Z,50.68
2019-05-07T23:09:22.640Z,50.79
2019-05-07T23:11:52.619Z,50.27
2019-05-07T23:14:23.112Z,50.31
2019-05-07T23:16:55.297Z,50.53
2019-05-07T23:19:23.635Z,50.00
2019-05-07T23:21:53.065Z,50.51
2019-05-07T23:24:24.736Z,50.45
2019-05-07T23:26:53.978Z,49.64
2019-05-07T23:29:23.405Z,49.21
2019-05-07T23:31:55.267Z,49.87
2019-05-07T23:34:23.992Z,50.37
2019-05-07T23:36:53.634Z,49.83
2019-05-07T23:39:24.707Z,50.06
2019-05-07T23:41:55.744Z,50.03
2019-05-07T23:44:25.180Z,50.05
2019-05-07T23:46:54.571Z,50.04
2019-05-07T23:49:24.084Z,49.72
2019-05-07T23:51:53.483Z,49.88
2019-05-07T23:54:23.440Z,49.32
2019-05-07T23:57:05.405Z,50.35
2019-05-07T23:59:24.015Z,50.29
